createdAt,value
2023-01-19T00:01:15.129Z,-0.20
2023-01-19T00:06:17.804Z,-0.10
2023-01-19T00:11:20.135Z,0.10
2023-01-19T00:16:23.319Z,-0.10
2023-01-19T00:21:26.116Z,-0.10
2023-01-19T00:26:28.091Z,0.10
2023-01-19T00:31:30.086Z,0.20
2023-01-19T00:36:34.256Z,0.20
2023-01-19T00:41:54.790Z,0.30
2023-01-19T00:46:56.723Z,0.20
2023-01-19T00:51:58.600Z,0.10
2023-01-19T00:57:03.436Z,0.00
2023-01-19T01:02:05.490Z,-0.10
2023-01-19T01:07:07.780Z,-0.20
2023-01-19T01:12:09.724Z,-0.20
2023-01-19T01:17:14.337Z,-0.20
2023-01-19T01:22:16.475Z,-0.20
2023-01-19T01:27:18.412Z,-0.20
2023-01-19T01:32:20.512Z,0.00
2023-01-19T01:37:22.566Z,0.10
2023-01-19T01:42:30.350Z,0.20
2023-01-19T01:47:42.103Z,0.30
2023-01-19T01:53:08.320Z,0.30
2023-01-19T01:58:11.372Z,0.20
2023-01-19T02:03:13.350Z,0.10
2023-01-19T02:08:51.791Z,0.20
2023-01-19T02:13:53.997Z,0.40
2023-01-19T02:18:57.197Z,0.60
2023-01-19T02:24:02.957Z,0.60
2023-01-19T02:29:13.257Z,0.50
2023-01-19T02:34:18.815Z,0.60
2023-01-19T02:39:26.984Z,0.60
2023-01-19T02:44:30.544Z,0.40
2023-01-19T02:49:32.472Z,0.50
2023-01-19T02:55:11.568Z,0.50
2023-01-19T03:00:40.512Z,0.60
2023-01-19T03:06:04.027Z,0.60
2023-01-19T03:11:07.988Z,0.70
2023-01-19T03:16:31.942Z,0.70
2023-01-19T03:21:36.777Z,0.50
2023-01-19T03:26:44.032Z,0.60
2023-01-19T03:31:49.897Z,0.50
2023-01-19T03:36:58.999Z,0.70
2023-01-19T03:42:06.037Z,0.60
2023-01-19T03:47:09.872Z,0.70
2023-01-19T03:52:12.951Z,0.80
2023-01-19T03:57:15.051Z,0.70
2023-01-19T04:02:17.070Z,0.70
2023-01-19T04:07:19.057Z,0.50
2023-01-19T04:12:21.009Z,0.60
2023-01-19T04:17:22.950Z,0.70
2023-01-19T04:22:24.855Z,0.50
2023-01-19T04:27:27.006Z,0.50
2023-01-19T04:32:29.093Z,0.50
2023-01-19T04:37:30.992Z,0.40
2023-01-19T04:42:32.949Z,0.50
2023-01-19T04:47:34.827Z,0.70
2023-01-19T04:52:36.891Z,0.60
2023-01-19T04:57:39.160Z,0.80
2023-01-19T05:02:44.013Z,0.70
2023-01-19T05:07:45.965Z,0.90
2023-01-19T05:12:48.105Z,0.70
2023-01-19T05:17:50.081Z,0.60
2023-01-19T05:22:53.476Z,0.50
2023-01-19T05:27:55.416Z,0.40
2023-01-19T05:32:57.322Z,0.70
2023-01-19T05:37:59.210Z,0.80
2023-01-19T05:43:05.125Z,0.80
2023-01-19T05:48:09.463Z,0.60
2023-01-19T05:53:12.098Z,0.40
2023-01-19T05:58:14.074Z,0.40
2023-01-19T06:03:16.019Z,0.30
2023-01-19T06:08:18.460Z,0.30
2023-01-19T06:13:21.589Z,0.20
2023-01-19T06:18:23.657Z,0.20
2023-01-19T06:23:33.552Z,0.40
2023-01-19T06:28:35.451Z,0.60
2023-01-19T06:33:37.387Z,0.50
2023-01-19T06:38:39.275Z,0.60
2023-01-19T06:43:41.268Z,0.60
2023-01-19T06:48:43.199Z,0.50
2023-01-19T06:53:45.676Z,0.50
2023-01-19T06:58:48.375Z,0.60
2023-01-19T07:03:50.332Z,0.60
2023-01-19T07:08:52.268Z,0.70
2023-01-19T07:13:55.590Z,0.70
2023-01-19T07:18:57.681Z,0.70
2023-01-19T07:23:59.612Z,0.80
2023-01-19T07:29:01.696Z,0.70
2023-01-19T07:34:03.697Z,0.70
2023-01-19T07:39:05.630Z,0.50
2023-01-19T07:44:08.736Z,0.50
2023-01-19T07:49:11.633Z,0.40
2023-01-19T07:54:13.540Z,0.50
2023-01-19T07:59:15.447Z,0.40
2023-01-19T08:04:19.117Z,0.50
2023-01-19T08:09:21.165Z,0.50
2023-01-19T08:14:23.039Z,0.60
2023-01-19T08:19:25.059Z,0.70
2023-01-19T08:24:29.003Z,0.80
2023-01-19T08:29:31.962Z,0.90
2023-01-19T08:34:34.072Z,0.90
2023-01-19T08:39:35.985Z,1.00
2023-01-19T08:44:41.443Z,0.90
2023-01-19T08:49:51.639Z,0.80
2023-01-19T08:54:53.619Z,0.80
2023-01-19T08:59:55.539Z,1.00
2023-01-19T09:04:57.408Z,0.80
2023-01-19T09:09:59.288Z,0.70
2023-01-19T09:15:01.360Z,0.90
2023-01-19T09:20:04.550Z,0.80
2023-01-19T09:25:07.873Z,1.20
2023-01-19T09:30:11.506Z,1.50
2023-01-19T09:35:13.609Z,1.40
2023-01-19T09:40:18.281Z,1.30
2023-01-19T09:45:35.007Z,1.20
2023-01-19T09:50:46.630Z,1.20
2023-01-19T09:55:49.999Z,1.10
2023-01-19T10:00:56.182Z,1.10
2023-01-19T10:06:08.214Z,1.20
2023-01-19T10:11:53.774Z,1.30
2023-01-19T10:17:19.507Z,1.20
2023-01-19T10:22:27.046Z,1.20
2023-01-19T10:27:31.627Z,1.20
2023-01-19T10:32:35.973Z,1.20
2023-01-19T10:37:38.240Z,1.20
2023-01-19T10:42:42.540Z,1.40
2023-01-19T10:47:46.378Z,1.40
2023-01-19T10:52:52.053Z,1.40
2023-01-19T10:57:54.302Z,1.40
2023-01-19T11:02:56.364Z,1.60
2023-01-19T11:07:58.929Z,1.80
2023-01-19T11:13:13.436Z,1.80
2023-01-19T11:18:42.760Z,1.90
2023-01-19T11:23:57.087Z,2.00
2023-01-19T11:29:00.959Z,1.90
2023-01-19T11:34:05.598Z,2.00
2023-01-19T11:39:27.993Z,2.20
2023-01-19T11:44:56.600Z,2.10
2023-01-19T11:50:12.789Z,2.00
2023-01-19T11:55:33.844Z,2.00
2023-01-19T12:00:44.495Z,1.90
2023-01-19T12:05:50.001Z,1.80
2023-01-19T12:10:54.474Z,1.90
2023-01-19T12:16:19.731Z,1.70
2023-01-19T12:21:22.384Z,1.60
2023-01-19T12:26:37.369Z,1.70
2023-01-19T12:31:40.865Z,1.50
2023-01-19T12:36:44.026Z,1.40
2023-01-19T12:41:51.071Z,1.30
2023-01-19T12:47:06.403Z,1.20
2023-01-19T12:52:28.889Z,1.40
2023-01-19T12:57:35.356Z,1.40
2023-01-19T13:02:46.430Z,1.20
2023-01-19T13:08:06.784Z,1.00
2023-01-19T13:13:18.572Z,0.90
2023-01-19T13:18:23.575Z,0.90
2023-01-19T13:23:28.628Z,1.10
2023-01-19T13:28:42.845Z,1.10
2023-01-19T13:33:59.891Z,1.20
2023-01-19T13:39:31.220Z,1.20
2023-01-19T13:44:39.242Z,1.30
2023-01-19T13:49:44.836Z,1.20
2023-01-19T13:54:53.900Z,1.20
2023-01-19T14:00:17.055Z,1.30
2023-01-19T14:05:45.350Z,1.30
2023-01-19T14:11:02.068Z,1.30
2023-01-19T14:16:14.671Z,1.10
2023-01-19T14:21:16.647Z,1.20
2023-01-19T14:26:37.567Z,1.10
2023-01-19T14:32:31.921Z,1.00
2023-01-19T14:37:36.591Z,1.00
2023-01-19T14:42:48.946Z,1.00
2023-01-19T14:48:03.133Z,1.10
2023-01-19T14:53:08.605Z,1.00
2023-01-19T14:58:12.418Z,1.00
2023-01-19T15:03:15.219Z,0.90
2023-01-19T15:08:23.476Z,1.00
2023-01-19T15:13:27.412Z,0.90
2023-01-19T15:18:33.057Z,0.80
2023-01-19T15:23:35.067Z,0.90
2023-01-19T15:28:37.181Z,0.90
2023-01-19T15:33:39.044Z,0.80
2023-01-19T15:38:40.994Z,0.90
2023-01-19T15:43:42.866Z,1.00
2023-01-19T15:48:44.769Z,1.00
2023-01-19T15:53:46.987Z,0.80
2023-01-19T15:58:49.319Z,0.90
2023-01-19T16:03:51.377Z,0.80
2023-01-19T16:08:59.128Z,0.80
2023-01-19T16:14:01.434Z,0.80
2023-01-19T16:19:03.419Z,0.80
2023-01-19T16:24:05.457Z,0.80
2023-01-19T16:29:10.475Z,0.80
2023-01-19T16:34:12.492Z,0.90
2023-01-19T16:39:15.418Z,0.90
2023-01-19T16:44:17.764Z,0.90
2023-01-19T16:49:21.889Z,0.90
2023-01-19T16:54:28.311Z,0.80
2023-01-19T16:59:30.332Z,0.80
2023-01-19T17:04:32.484Z,0.80
2023-01-19T17:09:34.415Z,0.70
2023-01-19T17:14:37.436Z,0.70
2023-01-19T17:19:40.095Z,0.60
2023-01-19T17:24:43.265Z,0.70
2023-01-19T17:29:45.239Z,0.60
2023-01-19T17:34:51.121Z,0.50
2023-01-19T17:39:55.064Z,0.60
2023-01-19T17:44:56.992Z,0.60
2023-01-19T17:49:58.891Z,0.50
2023-01-19T17:55:01.052Z,0.50
2023-01-19T18:00:08.104Z,0.60
2023-01-19T18:05:14.770Z,0.40
2023-01-19T18:10:17.205Z,0.50
2023-01-19T18:15:19.390Z,0.50
2023-01-19T18:20:21.291Z,0.50
2023-01-19T18:25:23.240Z,0.50
2023-01-19T18:30:25.300Z,0.50
2023-01-19T18:35:27.596Z,0.60
2023-01-19T18:40:29.746Z,0.60
2023-01-19T18:45:31.738Z,0.60
2023-01-19T18:50:33.736Z,0.50
2023-01-19T18:55:36.638Z,0.50
2023-01-19T19:00:38.561Z,0.40
2023-01-19T19:05:43.117Z,0.50
2023-01-19T19:10:45.350Z,0.60
2023-01-19T19:15:47.372Z,0.50
2023-01-19T19:20:49.329Z,0.50
2023-01-19T19:25:51.442Z,0.50
2023-01-19T19:31:06.393Z,0.50
2023-01-19T19:42:22.244Z,0.60
2023-01-19T19:47:38.809Z,0.50
2023-01-19T19:53:18.643Z,0.70
2023-01-19T19:58:38.229Z,0.70
2023-01-19T20:04:15.119Z,0.70
2023-01-19T20:09:37.420Z,0.80
2023-01-19T20:15:04.028Z,0.80
2023-01-19T20:20:18.012Z,0.80
2023-01-19T20:25:54.323Z,0.70
2023-01-19T20:31:08.990Z,0.80
2023-01-19T20:36:45.636Z,0.70
2023-01-19T20:41:51.209Z,0.70
2023-01-19T20:46:55.032Z,0.70
2023-01-19T20:51:58.332Z,0.70
2023-01-19T20:57:01.732Z,0.80
2023-01-19T21:02:08.211Z,0.80
2023-01-19T21:07:11.534Z,0.70
2023-01-19T21:12:16.383Z,0.70
2023-01-19T21:17:19.378Z,0.60
2023-01-19T21:22:26.272Z,0.40
2023-01-19T21:27:29.580Z,0.30
2023-01-19T21:32:33.094Z,0.40
2023-01-19T21:37:36.313Z,0.50
2023-01-19T21:42:41.157Z,0.40
2023-01-19T21:47:44.176Z,0.50
2023-01-19T21:52:47.463Z,0.60
2023-01-19T21:57:52.922Z,0.60
2023-01-19T22:03:04.172Z,0.60
2023-01-19T22:08:08.447Z,0.60
2023-01-19T22:13:11.657Z,0.50
2023-01-19T22:18:17.622Z,0.40
2023-01-19T22:23:21.041Z,0.40
2023-01-19T22:28:27.326Z,0.30
2023-01-19T22:33:30.526Z,0.30
2023-01-19T22:38:33.937Z,0.40
2023-01-19T22:43:37.140Z,0.30
2023-01-19T22:48:40.878Z,0.30
2023-01-19T22:53:44.175Z,0.40
2023-01-19T22:58:47.190Z,0.20
2023-01-19T23:03:51.094Z,0.20
2023-01-19T23:08:59.436Z,0.20
2023-01-19T23:14:04.065Z,0.30
2023-01-19T23:19:07.994Z,0.20
2023-01-19T23:24:11.508Z,0.30
2023-01-19T23:29:15.330Z,0.50
2023-01-19T23:34:18.550Z,0.50
2023-01-19T23:39:23.604Z,0.40
2023-01-19T23:44:26.913Z,0.20
2023-01-19T23:49:33.104Z,0.10
2023-01-19T23:54:36.178Z,0.00
2023-01-19T23:59:39.079Z,0.00
